Middletown, OH (45044)

1:09 PM EDT on August 25, 2016 (GMT -0400)
bridlecreek | | Change Station
Active Advisory: Special Statement

Elev 735 ft 39.43 °N, 84.35 °W | Updated 0 second ago

Mostly Cloudy
Mostly Cloudy
84.6 °F
Feels Like 95 °F
N
4.0
Wind Variable Wind from WSW
Gusts 14.0 mph

Today
High -- | Low -- °F
--% Chance of Precip.
Yesterday
High -- | Low -- °F
Precip. -- in
Pressure 30.09 in
Visibility 10.0 miles
Clouds Mostly Cloudy 2500 ft
Heat Index 95 °F
Dew Point 77 °F
Humidity 78%
Rainfall 0.03 in
Snow Depth Not available.
6:59 AM 8:18 PM
Last Quarter, 44% visible
METAR KMWO 251655Z AUTO 22011KT 10SM BKN025 32/25 A3009 RMK AO2 T03210252
Pressure 30.09 in
Visibility 10.0 miles
Clouds Mostly Cloudy 2500 ft
Heat Index 95 °F
Dew Point 77 °F
Humidity 78%
Rainfall 0.03 in
Snow Depth Not available.
6:59 AM 8:18 PM
Last Quarter, 44% visible
METAR KMWO 251655Z AUTO 22011KT 10SM BKN025 32/25 A3009 RMK AO2 T03210252

10-Day Weather Forecast

Almanac

Astronomy

Aug. 25, 2016 Rise Set
Actual Time
Civil Twilight
Nautical Twilight
Astronomical Twilight
Moon
Length of Visible Light
Length of Day
Tomorrow will be .
, % of the Moon is Illuminated

Today's Extremes

State Highs State Lows

Community

WunderPhotos

Upload Photos

1,934,874 photos uploaded!

WunderBlog® & News

Nearby

Air Quality

  Air Quality AQ Index Pollutant
Not available.

Snow Depth

Station Depth Elevation

Earthquake Activity

City Distance Mag. Time & Date
Minimum magnitude displayed is 2.5.

Coastal Water Temperatures

Place Temperature

Stations

Nearby Weather Stations

Station Location Temp. Windchill Dew Point Humidity Wind Precip. Elev Updated Type
                   

Watches & Warnings

Special Statement
Issued: 9:40 AM EDT Aug. 25, 2016 – National Weather Service

... Hot and humid conditions expected this afternoon...

Temperatures in the upper 80s to the lower 90s will combine with
high humidities to produce heat indices in the upper 90s to around
100 degrees this afternoon.

If possible... spend more time in an air conditioned or well
ventilated place this afternoon. If you will be outside... wear
light weight and loose fitting clothing. Remember to drink plenty
of water.


436 am EDT Thu Aug 25 2016

... Hot and humid conditions expected this afternoon...

Temperatures in the upper 80s to the lower 90s will combine with
high humidities to produce heat indices in the upper 90s to around
100 degrees this afternoon.

If possible... spend more time in an air conditioned or well
ventilated place this afternoon. If you will be outside... wear
light weight and loose fitting clothing. Remember to drink plenty
of water.